Time;durP1;ratioP1;P1;durP2;ratioP2;P2;SDS_P1;SDS_P2;PMS_P1;PMS_P2;Temp;Humidity;BMP_temperature;BMP_pressure;BME280_temperature;BME280_humidity;BME280_pressure;Samples;Min_cycle;Max_cycle;Signal;HPM_P1;HPM_P2
2024/04/15 00:01:08;;;;;;;0.10;0.10;;;;;;;;;;5337567;26;20025;-76
2024/04/15 00:03:39;;;;;;;0.10;0.10;;;;;;;;;;5337313;26;20056;-75
2024/04/15 00:06:10;;;;;;;0.88;0.15;;;;;;;;;;5337380;26;20032;-75
2024/04/15 00:08:41;;;;;;;2.10;0.40;;;;;;;;;;5338252;26;20556;-74
2024/04/15 00:11:12;;;;;;;0.30;0.10;;;;;;;;;;5337224;26;20324;-74
2024/04/15 00:13:43;;;;;;;0.20;0.20;;;;;;;;;;5339589;26;20021;-76
2024/04/15 00:16:14;;;;;;;0.28;0.10;;;;;;;;;;5372012;26;20023;-76
2024/04/15 00:18:44;;;;;;;2.45;0.20;;;;;;;;;;5372409;26;20459;-75
2024/04/15 00:21:14;;;;;;;2.17;0.28;;;;;;;;;;5372229;26;20024;-76
2024/04/15 00:23:44;;;;;;;2.22;0.13;;;;;;;;;;5372298;26;20019;-76
2024/04/15 00:26:15;;;;;;;0.03;0.03;;;;;;;;;;5370784;26;20024;-76
2024/04/15 00:28:47;;;;;;;0.43;0.13;;;;;;;;;;5372495;26;20031;-76
2024/04/15 00:31:17;;;;;;;2.75;0.30;;;;;;;;;;5371694;26;19992;-76
2024/04/15 00:33:47;;;;;;;0.28;0.13;;;;;;;;;;5372403;26;20055;-77
2024/04/15 00:36:18;;;;;;;0.35;0.10;;;;;;;;;;5373042;26;20044;-75
2024/04/15 00:38:48;;;;;;;1.23;0.10;;;;;;;;;;5372546;26;20675;-75
2024/04/15 00:41:19;;;;;;;1.80;0.10;;;;;;;;;;5372975;26;20491;-75
2024/04/15 00:43:49;;;;;;;0.20;0.20;;;;;;;;;;5372743;26;20032;-75
2024/04/15 00:46:19;;;;;;;0.32;0.20;;;;;;;;;;5372353;26;20028;-76
2024/04/15 00:48:51;;;;;;;0.20;0.10;;;;;;;;;;5372313;26;20032;-75
2024/04/15 00:51:23;;;;;;;0.60;0.22;;;;;;;;;;5368264;26;20466;-75
2024/04/15 00:53:56;;;;;;;1.35;0.20;;;;;;;;;;5365994;26;20006;-75
2024/04/15 00:56:26;;;;;;;2.08;0.20;;;;;;;;;;5366746;26;20006;-75
2024/04/15 00:58:57;;;;;;;0.45;0.20;;;;;;;;;;5368568;26;20031;-75
2024/04/15 01:01:29;;;;;;;0.00;0.00;;;;;;;;;;5368942;26;20028;-76
2024/04/15 01:03:59;;;;;;;0.38;0.10;;;;;;;;;;5368937;26;20630;-75
2024/04/15 01:06:31;;;;;;;0.25;0.10;;;;;;;;;;5369684;26;20489;-76
2024/04/15 01:09:01;;;;;;;0.00;0.00;;;;;;;;;;5369110;26;20039;-74
2024/04/15 01:11:32;;;;;;;0.17;0.10;;;;;;;;;;5368813;26;20010;-75
2024/04/15 01:14:05;;;;;;;1.40;0.05;;;;;;;;;;5368723;26;20028;-76
2024/04/15 01:16:39;;;;;;;0.30;0.10;;;;;;;;;;5369680;26;20784;-76
2024/04/15 01:19:09;;;;;;;1.23;0.20;;;;;;;;;;5368979;26;20028;-76
2024/04/15 01:21:40;;;;;;;0.65;0.00;;;;;;;;;;5368858;26;19996;-75
2024/04/15 01:24:11;;;;;;;5.60;0.40;;;;;;;;;;5368923;26;20040;-75
2024/04/15 01:26:47;;;;;;;0.93;0.20;;;;;;;;;;5368664;26;20032;-75
2024/04/15 01:29:17;;;;;;;;;;;;;;;;;;5369258;26;20032;-76
2024/04/15 01:31:47;;;;;;;0.40;0.13;;;;;;;;;;5369125;26;19925;-75
2024/04/15 01:34:18;;;;;;;0.10;0.10;;;;;;;;;;5371719;26;20028;-75
2024/04/15 01:36:49;;;;;;;3.05;0.20;;;;;;;;;;5371395;26;20031;-75
2024/04/15 01:39:19;;;;;;;0.22;0.10;;;;;;;;;;5371591;26;20374;-75
2024/04/15 01:41:50;;;;;;;1.85;0.10;;;;;;;;;;5371405;26;20024;-75
2024/04/15 01:44:20;;;;;;;2.08;0.20;;;;;;;;;;5371190;26;20900;-74
2024/04/15 01:46:50;;;;;;;0.38;0.08;;;;;;;;;;5371680;26;20028;-75
2024/04/15 01:49:22;;;;;;;0.10;0.08;;;;;;;;;;5371294;26;20045;-75
2024/04/15 01:51:52;;;;;;;0.10;0.10;;;;;;;;;;5371093;26;20027;-75
2024/04/15 01:54:22;;;;;;;0.85;0.10;;;;;;;;;;5370829;26;20024;-75
2024/04/15 01:56:53;;;;;;;0.10;0.10;;;;;;;;;;5371463;26;20360;-75
2024/04/15 01:59:24;;;;;;;0.47;0.10;;;;;;;;;;5369540;26;20044;-76
2024/04/15 02:01:55;;;;;;;0.35;0.20;;;;;;;;;;5370001;26;20483;-75
2024/04/15 02:04:25;;;;;;;3.42;0.10;;;;;;;;;;5371312;26;20028;-75
2024/04/15 02:06:55;;;;;;;2.10;0.20;;;;;;;;;;5371065;26;20029;-74
2024/04/15 02:09:27;;;;;;;0.30;0.20;;;;;;;;;;5370726;26;20029;-75
2024/04/15 02:11:58;;;;;;;0.00;0.00;;;;;;;;;;5371083;26;20032;-75
2024/04/15 02:14:28;;;;;;;2.70;0.20;;;;;;;;;;5371202;26;20020;-75
2024/04/15 02:16:58;;;;;;;0.82;0.20;;;;;;;;;;5370780;26;20040;-76
2024/04/15 02:19:31;;;;;;;0.10;0.10;;;;;;;;;;5369914;26;20027;-75
2024/04/15 02:22:01;;;;;;;2.35;0.10;;;;;;;;;;5370345;26;20024;-75
2024/04/15 02:24:32;;;;;;;0.35;0.17;;;;;;;;;;5371297;26;20047;-74
2024/04/15 02:27:03;;;;;;;0.70;0.03;;;;;;;;;;5370640;26;20043;-75
2024/04/15 02:29:33;;;;;;;1.00;0.20;;;;;;;;;;5370418;26;20028;-74
2024/04/15 02:32:04;;;;;;;1.60;0.20;;;;;;;;;;5369120;26;20679;-75
2024/04/15 02:34:35;;;;;;;2.00;0.25;;;;;;;;;;5370763;26;20026;-75
2024/04/15 02:37:06;;;;;;;2.47;0.17;;;;;;;;;;5371082;26;20467;-76
2024/04/15 02:39:41;;;;;;;1.77;0.20;;;;;;;;;;5370237;26;20020;-74
2024/04/15 02:42:11;;;;;;;0.45;0.10;;;;;;;;;;5370871;26;20526;-74
2024/04/15 02:44:42;;;;;;;1.23;0.10;;;;;;;;;;5369570;26;20024;-75
2024/04/15 02:47:12;;;;;;;2.00;0.20;;;;;;;;;;5369023;26;20031;-75
2024/04/15 02:49:43;;;;;;;0.85;0.20;;;;;;;;;;5370605;26;20036;-78
2024/04/15 02:52:13;;;;;;;0.35;0.17;;;;;;;;;;5371435;26;20021;-75
2024/04/15 02:54:44;;;;;;;1.27;0.25;;;;;;;;;;5370651;26;20024;-75
2024/04/15 02:57:14;;;;;;;3.55;0.22;;;;;;;;;;5369934;26;20024;-75
2024/04/15 02:59:45;;;;;;;0.25;0.10;;;;;;;;;;5370227;26;20374;-75
2024/04/15 03:02:16;;;;;;;0.82;0.20;;;;;;;;;;5370078;26;20028;-75
2024/04/15 03:04:46;;;;;;;1.10;0.20;;;;;;;;;;5370390;26;20042;-75
2024/04/15 03:07:17;;;;;;;2.33;0.28;;;;;;;;;;5370450;26;20028;-75
2024/04/15 03:09:53;;;;;;;2.90;0.30;;;;;;;;;;5369938;26;20024;-75
2024/04/15 03:12:23;;;;;;;4.10;0.68;;;;;;;;;;5371398;26;20028;-75
2024/04/15 03:14:53;;;;;;;1.88;0.20;;;;;;;;;;5373145;26;20648;-75
2024/04/15 03:17:24;;;;;;;1.65;0.20;;;;;;;;;;5373650;26;20022;-75
2024/04/15 03:19:55;;;;;;;3.10;0.20;;;;;;;;;;5373501;26;20029;-74
2024/04/15 03:22:25;;;;;;;0.73;0.25;;;;;;;;;;5373570;26;20020;-75
2024/04/15 03:24:56;;;;;;;4.13;0.30;;;;;;;;;;5373960;26;20044;-74
2024/04/15 03:27:27;;;;;;;0.32;0.10;;;;;;;;;;5372971;26;20024;-75
2024/04/15 03:29:58;;;;;;;1.02;0.30;;;;;;;;;;5373327;26;20028;-75
2024/04/15 03:32:29;;;;;;;6.07;0.50;;;;;;;;;;5373157;26;20044;-75
2024/04/15 03:34:59;;;;;;;1.70;0.20;;;;;;;;;;5373323;26;20383;-75
2024/04/15 03:37:29;;;;;;;2.63;0.30;;;;;;;;;;5374573;26;20039;-75
2024/04/15 03:40:00;;;;;;;1.27;0.20;;;;;;;;;;5373187;26;20493;-75
2024/04/15 03:42:31;;;;;;;2.20;0.20;;;;;;;;;;5374312;26;20020;-75
2024/04/15 03:45:04;;;;;;;4.78;0.32;;;;;;;;;;5343688;26;20040;-75
2024/04/15 03:47:35;;;;;;;4.85;0.65;;;;;;;;;;5372953;26;20040;-75
2024/04/15 03:50:06;;;;;;;2.47;0.50;;;;;;;;;;5372608;26;20024;-75
2024/04/15 03:52:36;;;;;;;1.35;0.50;;;;;;;;;;5372414;26;20648;-75
2024/04/15 03:55:08;;;;;;;3.22;0.28;;;;;;;;;;5372944;26;20028;-74
2024/04/15 03:57:38;;;;;;;2.90;0.30;;;;;;;;;;5372827;26;20020;-74
2024/04/15 04:00:11;;;;;;;0.88;0.30;;;;;;;;;;5372967;26;20028;-75
2024/04/15 04:02:42;;;;;;;7.13;0.65;;;;;;;;;;5372587;26;20048;-75
2024/04/15 04:05:13;;;;;;;1.38;0.30;;;;;;;;;;5372589;26;20529;-75
2024/04/15 04:07:43;;;;;;;8.90;0.35;;;;;;;;;;5372627;26;20024;-74
2024/04/15 04:10:15;;;;;;;1.77;0.28;;;;;;;;;;5373063;26;20032;-74
2024/04/15 04:12:45;;;;;;;0.73;0.30;;;;;;;;;;5372792;26;20391;-75
2024/04/15 04:15:16;;;;;;;6.45;0.50;;;;;;;;;;5372713;26;20044;-75
2024/04/15 04:17:46;;;;;;;7.20;0.30;;;;;;;;;;5372548;26;20042;-75
2024/04/15 04:20:18;;;;;;;4.18;0.30;;;;;;;;;;5372977;26;20472;-75
2024/04/15 04:22:48;;;;;;;2.92;0.40;;;;;;;;;;5371441;26;20024;-75
2024/04/15 04:25:19;;;;;;;3.10;0.30;;;;;;;;;;5370067;26;20028;-74
2024/04/15 04:27:48;;;;;;;2.67;0.40;;;;;;;;;;5372345;26;20024;-75
2024/04/15 04:30:20;;;;;;;5.90;0.50;;;;;;;;;;5372934;26;20020;-75
2024/04/15 04:32:52;;;;;;;4.30;0.50;;;;;;;;;;5372008;26;19996;-75
2024/04/15 04:35:23;;;;;;;3.35;0.85;;;;;;;;;;5372817;26;20051;-75
2024/04/15 04:37:53;;;;;;;1.55;0.50;;;;;;;;;;5372258;26;20020;-74
2024/04/15 04:40:23;;;;;;;5.40;0.68;;;;;;;;;;5372050;26;20024;-74
2024/04/15 04:42:54;;;;;;;1.60;0.57;;;;;;;;;;5372824;26;20059;-75
2024/04/15 04:45:26;;;;;;;1.35;0.30;;;;;;;;;;5372613;26;20547;-75
2024/04/15 04:47:57;;;;;;;1.67;0.28;;;;;;;;;;5372864;26;20028;-75
2024/04/15 04:50:27;;;;;;;5.32;0.40;;;;;;;;;;5370460;26;20025;-75
2024/04/15 04:52:59;;;;;;;1.75;0.40;;;;;;;;;;5371475;26;20367;-74
2024/04/15 04:55:31;;;;;;;1.35;0.38;;;;;;;;;;5371879;26;20020;-74
2024/04/15 04:58:05;;;;;;;2.65;0.65;;;;;;;;;;5372509;26;20026;-75
2024/04/15 05:00:36;;;;;;;3.42;0.40;;;;;;;;;;5372332;26;20020;-75
2024/04/15 05:03:06;;;;;;;5.82;0.45;;;;;;;;;;5372933;26;20803;-75
2024/04/15 05:05:37;;;;;;;3.45;0.70;;;;;;;;;;5372673;26;20029;-75
2024/04/15 05:08:07;;;;;;;5.18;0.70;;;;;;;;;;5370957;26;20024;-75
2024/04/15 05:10:38;;;;;;;2.15;0.50;;;;;;;;;;5372449;26;20366;-74
2024/04/15 05:13:08;;;;;;;2.33;0.65;;;;;;;;;;5371653;26;20020;-75
2024/04/15 05:15:39;;;;;;;1.08;0.60;;;;;;;;;;5372174;26;20024;-74
2024/04/15 05:18:10;;;;;;;1.83;0.50;;;;;;;;;;5369700;26;20023;-74
2024/04/15 05:20:41;;;;;;;0.60;0.45;;;;;;;;;;5372012;26;20375;-76
2024/04/15 05:23:11;;;;;;;2.97;0.60;;;;;;;;;;5371607;26;20032;-74
2024/04/15 05:25:42;;;;;;;2.05;0.60;;;;;;;;;;5371399;26;20551;-75
2024/04/15 05:28:12;;;;;;;0.80;0.50;;;;;;;;;;5369849;26;20028;-75
2024/04/15 05:30:44;;;;;;;0.43;0.43;;;;;;;;;;5371943;26;20036;-75
2024/04/15 05:33:14;;;;;;;4.47;0.68;;;;;;;;;;5372237;26;20032;-75
2024/04/15 05:35:44;;;;;;;4.57;0.70;;;;;;;;;;5370605;26;20052;-74
2024/04/15 05:38:15;;;;;;;0.77;0.55;;;;;;;;;;5371563;26;20016;-75
2024/04/15 05:40:47;;;;;;;1.33;1.02;;;;;;;;;;5371326;26;20059;-75
2024/04/15 05:43:17;;;;;;;1.23;0.60;;;;;;;;;;5371332;26;20031;-75
2024/04/15 05:45:47;;;;;;;0.88;0.55;;;;;;;;;;5369807;26;20024;-75
2024/04/15 05:48:18;;;;;;;3.75;0.57;;;;;;;;;;5372255;26;20028;-75
2024/04/15 05:50:49;;;;;;;1.75;0.22;;;;;;;;;;5371067;26;20021;-75
2024/04/15 05:53:21;;;;;;;0.70;0.40;;;;;;;;;;5371509;26;20025;-76
2024/04/15 05:55:51;;;;;;;1.80;0.60;;;;;;;;;;5371632;26;20459;-75
2024/04/15 05:58:21;;;;;;;2.42;0.60;;;;;;;;;;5371376;26;20024;-75
2024/04/15 06:00:52;;;;;;;5.38;1.02;;;;;;;;;;5370809;26;20028;-75
2024/04/15 06:03:22;;;;;;;3.45;0.70;;;;;;;;;;5371075;26;20047;-75
2024/04/15 06:05:53;;;;;;;5.53;0.65;;;;;;;;;;5370670;26;20676;-75
2024/04/15 06:08:23;;;;;;;3.53;0.57;;;;;;;;;;5371346;26;20028;-74
2024/04/15 06:10:53;;;;;;;9.27;0.70;;;;;;;;;;5370676;26;20476;-75
2024/04/15 06:13:24;;;;;;;3.75;0.70;;;;;;;;;;5368928;26;20011;-75
2024/04/15 06:15:56;;;;;;;1.23;0.50;;;;;;;;;;5371148;26;20020;-75
2024/04/15 06:18:27;;;;;;;2.47;0.50;;;;;;;;;;5371016;26;20467;-75
2024/04/15 06:20:57;;;;;;;1.30;0.70;;;;;;;;;;5371418;26;20024;-75
2024/04/15 06:23:31;;;;;;;2.35;0.52;;;;;;;;;;5371507;26;20000;-75
2024/04/15 06:26:02;;;;;;;2.33;0.50;;;;;;;;;;5371582;26;20028;-76
2024/04/15 06:28:32;;;;;;;2.03;0.50;;;;;;;;;;5370961;26;20048;-74
2024/04/15 06:31:02;;;;;;;1.55;0.50;;;;;;;;;;5372017;26;20378;-75
2024/04/15 06:33:33;;;;;;;3.67;0.50;;;;;;;;;;5370884;26;20028;-75
2024/04/15 06:36:05;;;;;;;2.72;0.50;;;;;;;;;;5370095;26;20037;-75
2024/04/15 06:38:36;;;;;;;4.20;0.50;;;;;;;;;;5371036;26;20388;-75
2024/04/15 06:41:06;;;;;;;1.08;0.40;;;;;;;;;;5370108;26;20028;-75
2024/04/15 06:43:36;;;;;;;3.15;0.60;;;;;;;;;;5370874;26;20483;-75
2024/04/15 06:46:07;;;;;;;2.00;0.40;;;;;;;;;;5369921;26;20036;-75
2024/04/15 06:48:43;;;;;;;2.63;0.40;;;;;;;;;;5370947;26;20360;-74
2024/04/15 06:51:14;;;;;;;0.63;0.47;;;;;;;;;;5370263;26;20364;-74
2024/04/15 06:53:44;;;;;;;0.45;0.30;;;;;;;;;;5370438;26;19996;-75
2024/04/15 06:56:17;;;;;;;6.15;0.40;;;;;;;;;;5369257;26;20116;-74
2024/04/15 06:58:48;;;;;;;1.35;0.35;;;;;;;;;;5368730;26;20024;-74
2024/04/15 07:01:19;;;;;;;0.77;0.32;;;;;;;;;;5371671;26;20479;-75
2024/04/15 07:03:50;;;;;;;4.22;0.40;;;;;;;;;;5370143;26;20025;-74
2024/04/15 07:06:22;;;;;;;0.82;0.30;;;;;;;;;;5369953;26;20479;-74
2024/04/15 07:08:53;;;;;;;2.55;0.22;;;;;;;;;;5369811;26;20032;-75
2024/04/15 07:11:24;;;;;;;0.32;0.30;;;;;;;;;;5370502;26;20040;-74
2024/04/15 07:13:55;;;;;;;2.50;0.20;;;;;;;;;;5370436;26;20364;-75
2024/04/15 07:16:26;;;;;;;7.00;0.65;;;;;;;;;;5370947;26;20020;-75
2024/04/15 07:18:57;;;;;;;0.20;0.20;;;;;;;;;;5370219;26;20032;-74
2024/04/15 07:21:27;;;;;;;0.30;0.30;;;;;;;;;;5369969;26;20037;-75
2024/04/15 07:23:58;;;;;;;4.53;0.35;;;;;;;;;;5368567;26;20388;-74
2024/04/15 07:26:31;;;;;;;1.25;0.30;;;;;;;;;;5370116;26;20021;-75
2024/04/15 07:29:04;;;;;;;4.05;0.30;;;;;;;;;;5369839;26;20024;-75
2024/04/15 07:31:34;;;;;;;1.13;0.35;;;;;;;;;;5367955;26;20007;-74
2024/04/15 07:34:04;;;;;;;1.48;0.57;;;;;;;;;;5370336;26;20032;-75
2024/04/15 07:36:35;;;;;;;0.30;0.30;;;;;;;;;;5369195;26;19996;-75
2024/04/15 07:39:07;;;;;;;0.10;0.10;;;;;;;;;;5369640;26;20025;-77
2024/04/15 07:41:40;;;;;;;0.57;0.35;;;;;;;;;;5369456;26;20028;-74
2024/04/15 07:44:10;;;;;;;2.63;0.30;;;;;;;;;;5369505;26;20021;-74
2024/04/15 07:46:40;;;;;;;2.40;0.20;;;;;;;;;;5369918;26;20027;-74
2024/04/15 07:49:12;;;;;;;1.77;0.43;;;;;;;;;;5369902;26;20028;-75
2024/04/15 07:51:43;;;;;;;1.65;0.30;;;;;;;;;;5369141;26;20490;-75
2024/04/15 07:54:13;;;;;;;2.33;0.22;;;;;;;;;;5369223;26;20036;-75
2024/04/15 07:56:43;;;;;;;2.28;0.35;;;;;;;;;;5369619;26;20044;-75
2024/04/15 07:59:13;;;;;;;1.00;0.32;;;;;;;;;;5370524;26;20032;-75
2024/04/15 08:01:44;;;;;;;2.70;0.30;;;;;;;;;;5371603;26;20020;-74
2024/04/15 08:04:16;;;;;;;1.75;0.38;;;;;;;;;;5372831;26;20020;-75
2024/04/15 08:06:48;;;;;;;2.70;0.50;;;;;;;;;;5371415;26;20024;-75
2024/04/15 08:09:39;;;;;;;5.07;0.40;;;;;;;;;;5374462;26;20028;-75
2024/04/15 08:12:11;;;;;;;0.10;0.10;;;;;;;;;;5373388;26;20044;-75
2024/04/15 08:14:42;;;;;;;0.30;0.17;;;;;;;;;;5372928;26;21048;-74
2024/04/15 08:17:13;;;;;;;5.07;0.30;;;;;;;;;;5372102;26;20036;-74
2024/04/15 08:19:43;;;;;;;0.30;0.30;;;;;;;;;;5372656;26;20056;-74
2024/04/15 08:22:14;;;;;;;0.65;0.40;;;;;;;;;;5372981;26;20024;-74
2024/04/15 08:24:50;;;;;;;1.75;0.40;;;;;;;;;;5372238;26;20041;-75
2024/04/15 08:27:21;;;;;;;0.55;0.25;;;;;;;;;;5372584;26;20024;-74
2024/04/15 08:29:53;;;;;;;1.75;0.30;;;;;;;;;;5370600;26;20024;-75
2024/04/15 08:32:29;;;;;;;2.13;0.50;;;;;;;;;;5372658;26;20027;-76
2024/04/15 08:35:04;;;;;;;0.55;0.20;;;;;;;;;;5372435;26;20025;-75
2024/04/15 08:37:34;;;;;;;2.63;0.47;;;;;;;;;;5373225;26;20024;-75
2024/04/15 08:40:05;;;;;;;2.42;0.40;;;;;;;;;;5372478;26;20371;-75
2024/04/15 08:42:53;;;;;;;0.70;0.30;;;;;;;;;;5372367;26;20024;-75
2024/04/15 08:45:24;;;;;;;1.70;0.28;;;;;;;;;;5372228;26;20021;-75
2024/04/15 08:47:57;;;;;;;0.22;0.20;;;;;;;;;;5372690;26;20031;-75
2024/04/15 08:50:27;;;;;;;1.50;0.20;;;;;;;;;;5372484;26;20356;-75
2024/04/15 08:52:59;;;;;;;1.17;0.22;;;;;;;;;;5371919;26;20024;-74
2024/04/15 08:55:32;;;;;;;0.50;0.22;;;;;;;;;;5373817;26;20048;-74
2024/04/15 08:58:02;;;;;;;0.20;0.20;;;;;;;;;;5372325;26;20024;-75
2024/04/15 09:00:34;;;;;;;1.08;0.30;;;;;;;;;;5372823;26;20040;-75
2024/04/15 09:03:06;;;;;;;0.98;0.45;;;;;;;;;;5372216;26;20024;-76
2024/04/15 09:05:40;;;;;;;3.35;0.75;;;;;;;;;;5370308;26;20471;-75
2024/04/15 09:08:11;;;;;;;2.47;0.30;;;;;;;;;;5370427;26;20687;-76
2024/04/15 09:10:40;;;;;;;1.45;0.22;;;;;;;;;;5369838;26;20020;-74
2024/04/15 09:13:12;;;;;;;0.95;0.38;;;;;;;;;;5371314;26;20111;-75
2024/04/15 09:15:43;;;;;;;0.57;0.30;;;;;;;;;;5372009;26;20023;-76
2024/04/15 09:18:14;;;;;;;2.20;0.38;;;;;;;;;;5369592;26;20028;-75
2024/04/15 09:20:47;;;;;;;1.88;0.30;;;;;;;;;;5371335;26;20728;-74
2024/04/15 09:23:30;;;;;;;0.77;0.50;;;;;;;;;;5372038;26;20636;-75
2024/04/15 09:26:02;;;;;;;1.85;0.55;;;;;;;;;;5371529;26;20059;-75
2024/04/15 09:28:32;;;;;;;0.20;0.20;;;;;;;;;;5371642;26;20032;-75
2024/04/15 09:31:04;;;;;;;1.05;0.70;;;;;;;;;;5372391;26;21091;-76
2024/04/15 09:33:36;;;;;;;8.98;1.60;;;;;;;;;;5372224;26;20028;-75
2024/04/15 09:36:07;;;;;;;5.00;1.00;;;;;;;;;;5369843;26;20791;-74
2024/04/15 09:38:39;;;;;;;4.10;0.70;;;;;;;;;;5372247;26;20024;-74
2024/04/15 09:41:12;;;;;;;6.20;1.10;;;;;;;;;;5371779;26;20463;-79
2024/04/15 09:43:46;;;;;;;2.83;0.73;;;;;;;;;;5370977;26;20024;-75
2024/04/15 09:46:20;;;;;;;1.00;0.30;;;;;;;;;;5371410;26;20483;-75
2024/04/15 09:48:53;;;;;;;1.48;0.30;;;;;;;;;;5371172;26;20028;-75
2024/04/15 09:51:24;;;;;;;6.55;0.70;;;;;;;;;;5370613;26;20458;-75
2024/04/15 09:54:01;;;;;;;6.00;1.05;;;;;;;;;;5371175;26;20346;-75
2024/04/15 09:56:43;;;;;;;7.65;1.23;;;;;;;;;;5371092;26;20028;-76
2024/04/15 09:59:15;;;;;;;5.72;1.27;;;;;;;;;;5369467;26;20020;-80
2024/04/15 10:01:47;;;;;;;3.67;1.30;;;;;;;;;;5371290;26;20364;-76
2024/04/15 10:04:22;;;;;;;10.68;1.30;;;;;;;;;;5371380;26;20055;-75
2024/04/15 10:07:01;;;;;;;2.13;0.90;;;;;;;;;;5429130;26;20024;-75
2024/04/15 10:09:32;;;;;;;10.70;1.35;;;;;;;;;;5369485;26;20368;-76
2024/04/15 10:12:02;;;;;;;4.60;0.80;;;;;;;;;;5370725;26;20514;-74
2024/04/15 10:14:34;;;;;;;2.28;0.60;;;;;;;;;;5371099;26;20028;-75
2024/04/15 10:17:09;;;;;;;0.65;0.45;;;;;;;;;;5370695;26;20028;-76
2024/04/15 10:19:40;;;;;;;3.08;0.80;;;;;;;;;;5370660;26;20028;-75
2024/04/15 10:22:13;;;;;;;1.13;0.60;;;;;;;;;;5371530;26;20020;-80
2024/04/15 10:24:46;;;;;;;1.35;0.40;;;;;;;;;;5370688;26;20024;-76
2024/04/15 10:27:17;;;;;;;1.48;0.63;;;;;;;;;;5425914;26;20007;-75
2024/04/15 10:29:50;;;;;;;4.78;0.60;;;;;;;;;;5382201;26;20031;-75
2024/04/15 10:32:25;;;;;;;1.33;0.40;;;;;;;;;;5406416;26;20028;-75
2024/04/15 10:34:56;;;;;;;1.05;0.35;;;;;;;;;;5404512;26;20000;-74
2024/04/15 10:37:37;;;;;;;0.73;0.30;;;;;;;;;;5406148;26;20032;-76
2024/04/15 10:40:09;;;;;;;1.58;0.40;;;;;;;;;;5406342;26;20023;-76
2024/04/15 10:42:41;;;;;;;0.50;0.22;;;;;;;;;;5405596;26;20639;-77
2024/04/15 10:45:17;;;;;;;0.30;0.30;;;;;;;;;;5433629;26;20471;-76
2024/04/15 10:48:04;;;;;;;3.60;0.40;;;;;;;;;;5407266;26;20023;-76
2024/04/15 10:51:02;;;;;;;2.80;0.22;;;;;;;;;;5402902;26;20020;-74
2024/04/15 10:53:32;;;;;;;0.65;0.30;;;;;;;;;;5405532;26;20027;-74
2024/04/15 10:56:04;;;;;;;2.28;0.35;;;;;;;;;;5405719;26;20039;-77
2024/04/15 10:58:36;;;;;;;0.25;0.20;;;;;;;;;;5433451;26;20360;-76
2024/04/15 11:01:14;;;;;;;1.35;0.35;;;;;;;;;;5405922;26;20776;-75
2024/04/15 11:03:48;;;;;;;1.10;0.20;;;;;;;;;;5406156;26;20027;-77
2024/04/15 11:06:19;;;;;;;6.80;0.60;;;;;;;;;;5405800;26;20695;-74
2024/04/15 11:08:50;;;;;;;2.75;0.40;;;;;;;;;;5405576;26;20791;-74
2024/04/15 11:11:21;;;;;;;0.20;0.20;;;;;;;;;;5405271;26;20032;-76
2024/04/15 11:13:54;;;;;;;1.48;0.25;;;;;;;;;;5405151;26;20479;-76
2024/04/15 11:16:25;;;;;;;3.67;0.90;;;;;;;;;;5405920;26;20040;-76
2024/04/15 11:19:07;;;;;;;5.78;0.40;;;;;;;;;;5404887;26;20051;-77
2024/04/15 11:21:38;;;;;;;2.63;0.40;;;;;;;;;;5404981;26;20032;-76
2024/04/15 11:24:10;;;;;;;1.63;0.32;;;;;;;;;;5405412;26;20019;-76
2024/04/15 11:26:45;;;;;;;2.78;0.35;;;;;;;;;;5432756;26;20019;-75
2024/04/15 11:29:16;;;;;;;;;;;;;;;;;;5405590;26;20032;-76
2024/04/15 11:31:47;;;;;;;1.00;0.65;;;;;;;;;;5405389;26;19953;-79
2024/04/15 11:34:19;;;;;;;0.68;0.30;;;;;;;;;;5406595;26;20050;-76
2024/04/15 11:36:50;;;;;;;2.80;0.63;;;;;;;;;;5404225;26;20572;-76
2024/04/15 11:39:21;;;;;;;0.47;0.35;;;;;;;;;;5408258;26;20028;-75
2024/04/15 11:41:52;;;;;;;0.57;0.57;;;;;;;;;;5409563;26;20383;-75
2024/04/15 11:44:22;;;;;;;0.60;0.30;;;;;;;;;;5408502;26;20023;-76
2024/04/15 11:46:57;;;;;;;4.40;0.50;;;;;;;;;;5408178;26;20046;-78
2024/04/15 11:49:28;;;;;;;0.63;0.40;;;;;;;;;;5406715;26;20362;-76
2024/04/15 11:52:02;;;;;;;5.63;0.45;;;;;;;;;;5435574;26;20031;-77
2024/04/15 11:54:33;;;;;;;0.63;0.52;;;;;;;;;;5408649;26;20032;-74
2024/04/15 11:57:06;;;;;;;0.22;0.22;;;;;;;;;;5408877;26;20000;-74
2024/04/15 11:59:37;;;;;;;1.45;0.40;;;;;;;;;;5408472;26;20044;-77
2024/04/15 12:02:10;;;;;;;0.40;0.20;;;;;;;;;;5407429;26;20031;-78
2024/04/15 12:04:47;;;;;;;0.82;0.30;;;;;;;;;;5408096;26;20028;-74
2024/04/15 12:07:19;;;;;;;3.97;0.52;;;;;;;;;;5408623;26;20023;-74
2024/04/15 12:09:51;;;;;;;3.00;0.85;;;;;;;;;;5408635;26;20019;-74
2024/04/15 12:12:22;;;;;;;3.42;0.57;;;;;;;;;;5408153;26;20027;-74
2024/04/15 12:14:52;;;;;;;1.20;0.40;;;;;;;;;;5408031;26;20023;-74
2024/04/15 12:17:23;;;;;;;2.70;0.70;;;;;;;;;;5435133;26;20058;-76
2024/04/15 12:19:56;;;;;;;2.75;0.70;;;;;;;;;;5406232;26;20351;-75
2024/04/15 12:22:26;;;;;;;0.68;0.43;;;;;;;;;;5435479;26;20033;-79
2024/04/15 12:24:56;;;;;;;1.75;0.45;;;;;;;;;;5408777;26;20026;-76
2024/04/15 12:27:37;;;;;;;1.27;0.40;;;;;;;;;;5407587;26;20020;-75
2024/04/15 12:30:12;;;;;;;1.75;1.00;;;;;;;;;;5407987;26;20031;-75
2024/04/15 12:32:42;;;;;;;1.73;0.40;;;;;;;;;;5407558;26;20042;-75
2024/04/15 12:35:14;;;;;;;0.40;0.32;;;;;;;;;;5405238;26;20038;-79
2024/04/15 12:37:44;;;;;;;0.17;0.17;;;;;;;;;;5407067;26;20039;-76
2024/04/15 12:40:15;;;;;;;0.28;0.10;;;;;;;;;;5404806;26;20035;-75
2024/04/15 12:42:45;;;;;;;1.58;0.40;;;;;;;;;;5435413;26;20002;-75
2024/04/15 12:45:16;;;;;;;0.35;0.20;;;;;;;;;;5407002;26;20020;-76
2024/04/15 12:47:47;;;;;;;0.40;0.25;;;;;;;;;;5404412;26;20021;-80
2024/04/15 12:50:18;;;;;;;2.70;0.45;;;;;;;;;;5407380;26;20028;-75
2024/04/15 12:52:49;;;;;;;1.20;0.20;;;;;;;;;;5407228;26;20043;-75
2024/04/15 12:55:19;;;;;;;0.35;0.20;;;;;;;;;;5406130;26;19992;-74
2024/04/15 12:57:49;;;;;;;2.08;0.30;;;;;;;;;;5407869;26;20023;-74
2024/04/15 13:00:20;;;;;;;2.00;0.45;;;;;;;;;;5407591;26;20024;-76
2024/04/15 13:02:52;;;;;;;0.88;0.20;;;;;;;;;;5408312;26;20051;-77
2024/04/15 13:05:24;;;;;;;3.72;0.45;;;;;;;;;;5408449;26;20850;-75
2024/04/15 13:07:57;;;;;;;0.25;0.25;;;;;;;;;;5410424;26;20032;-79
2024/04/15 13:10:28;;;;;;;0.85;0.30;;;;;;;;;;5407290;26;20028;-84
2024/04/15 13:13:00;;;;;;;0.20;0.20;;;;;;;;;;5407267;26;20027;-79
2024/04/15 13:15:32;;;;;;;1.98;0.20;;;;;;;;;;5407122;26;19996;-75
2024/04/15 13:18:03;;;;;;;1.10;0.20;;;;;;;;;;5407185;26;20576;-75
2024/04/15 13:20:35;;;;;;;3.40;0.40;;;;;;;;;;5407085;26;20023;-75
2024/04/15 13:23:08;;;;;;;3.95;1.10;;;;;;;;;;5406960;26;21001;-76
2024/04/15 13:25:38;;;;;;;3.95;0.47;;;;;;;;;;5406418;26;20028;-75
2024/04/15 13:28:09;;;;;;;0.68;0.22;;;;;;;;;;5407053;26;20029;-75
2024/04/15 13:30:40;;;;;;;0.60;0.30;;;;;;;;;;5406628;26;20482;-76
2024/04/15 13:33:11;;;;;;;0.20;0.20;;;;;;;;;;5406975;26;20047;-75
2024/04/15 13:35:42;;;;;;;0.13;0.13;;;;;;;;;;5406447;26;19996;-75
2024/04/15 13:38:13;;;;;;;0.13;0.10;;;;;;;;;;5407109;26;20024;-75
2024/04/15 13:40:43;;;;;;;1.00;0.17;;;;;;;;;;5407498;26;20024;-78
2024/04/15 13:43:14;;;;;;;1.38;0.28;;;;;;;;;;5407145;26;20024;-76
2024/04/15 13:45:45;;;;;;;0.95;0.57;;;;;;;;;;5406996;26;20046;-75
2024/04/15 13:48:15;;;;;;;1.33;0.40;;;;;;;;;;5405429;26;20032;-75
2024/04/15 13:50:48;;;;;;;0.10;0.10;;;;;;;;;;5407521;26;20039;-75
2024/04/15 13:53:19;;;;;;;0.30;0.10;;;;;;;;;;5407449;26;20027;-76
2024/04/15 13:55:50;;;;;;;3.10;0.20;;;;;;;;;;5406803;26;20025;-77
2024/04/15 13:58:20;;;;;;;1.05;0.50;;;;;;;;;;5405908;26;20036;-75
2024/04/15 14:00:54;;;;;;;1.15;0.60;;;;;;;;;;5406103;26;20765;-76
2024/04/15 14:03:24;;;;;;;1.52;0.40;;;;;;;;;;5406522;26;20019;-75
2024/04/15 14:05:56;;;;;;;2.20;0.20;;;;;;;;;;5406731;26;20040;-76
2024/04/15 14:08:26;;;;;;;0.50;0.20;;;;;;;;;;5406183;26;20470;-75
2024/04/15 14:10:57;;;;;;;0.63;0.40;;;;;;;;;;5406656;26;20036;-76
2024/04/15 14:13:29;;;;;;;1.88;0.30;;;;;;;;;;5406358;26;20039;-75
2024/04/15 14:16:00;;;;;;;2.05;0.70;;;;;;;;;;5406403;26;20023;-76
2024/04/15 14:18:31;;;;;;;0.30;0.30;;;;;;;;;;5405931;26;20032;-76
2024/04/15 14:21:04;;;;;;;0.35;0.30;;;;;;;;;;5406920;26;20032;-76
2024/04/15 14:23:35;;;;;;;0.22;0.20;;;;;;;;;;5404679;26;20035;-74
2024/04/15 14:26:05;;;;;;;0.98;0.73;;;;;;;;;;5404774;26;20031;-75
2024/04/15 14:28:36;;;;;;;1.67;0.30;;;;;;;;;;5406119;26;20032;-76
2024/04/15 14:31:06;;;;;;;0.57;0.30;;;;;;;;;;5403729;26;20023;-74
2024/04/15 14:33:37;;;;;;;2.28;0.55;;;;;;;;;;5406551;26;20039;-76
2024/04/15 14:36:08;;;;;;;0.47;0.30;;;;;;;;;;5404974;26;20835;-75
2024/04/15 14:38:39;;;;;;;0.13;0.13;;;;;;;;;;5406083;26;20027;-76
2024/04/15 14:41:11;;;;;;;4.68;0.65;;;;;;;;;;5406016;26;20019;-76
2024/04/15 14:43:42;;;;;;;0.30;0.30;;;;;;;;;;5433029;26;20538;-76
2024/04/15 14:46:12;;;;;;;0.20;0.20;;;;;;;;;;5406566;26;20635;-78
2024/04/15 14:48:42;;;;;;;0.45;0.30;;;;;;;;;;5405490;26;20027;-77
2024/04/15 14:51:14;;;;;;;0.65;0.50;;;;;;;;;;5405444;26;20662;-76
2024/04/15 14:53:46;;;;;;;2.22;0.20;;;;;;;;;;5433501;26;20002;-77
2024/04/15 14:56:17;;;;;;;1.83;0.30;;;;;;;;;;5405743;26;20027;-77
2024/04/15 14:58:48;;;;;;;0.30;0.25;;;;;;;;;;5404336;26;20027;-78
2024/04/15 15:01:18;;;;;;;0.50;0.20;;;;;;;;;;5405106;26;20040;-77
2024/04/15 15:03:49;;;;;;;0.30;0.30;;;;;;;;;;5403402;26;20818;-79
2024/04/15 15:06:20;;;;;;;2.00;0.40;;;;;;;;;;5405660;26;20357;-75
2024/04/15 15:08:51;;;;;;;3.42;0.30;;;;;;;;;;5405549;26;20027;-77